Weather at Phaplu Airport

Public forecast

Using degrees Celsius for public forecast. Weather courtesy of forecast.io.

Closest aviation weather report (METAR) to Phaplu Airport

Report is more than 6 hours old.

Closest report is Tribhuvan International Airport, 66.1 nm (122.4 km) W. Retrieved 2021/01/26 19:50 UTC (10 hours ago):

VNKT 261950Z 08003KT 7000 FEW015 06/04 Q1018 NOSIG

Closest aviation forecast (TAF) to Phaplu Airport

Closest forecast is Tribhuvan International Airport, 66.1 nm (122.4 km) W. Retrieved 2021-01-27 00:42 UTC (6 hours ago):

TAF TAF VNKT 262300Z 2700/2724 00000KT 5000 BR FEW015 BECMG 2700/2702 VRB02KT 3000 BR FEW010 PROB40 2701/2703 1500 BR BECMG 2704/2705 12003KT 4000 HZ FEW015 BECMG 2707/2709 26005KT 7000 FEW015 BECMG 2713/2715 10003KT 6000 FEW015